Forside
METAR-TAF:

METAR-TAF

Lufthavne :

Porter County Municipal Airport

Valparaiso, Indiana, USA

Breddekreds: 41-27-11N, længdekreds: 086-59-53W, højde: 234 m

Aktuelle vejr

Denne rapport blev lavet for 57 minutter siden, kl. 23:56 UTC
Vind 9 kt fra nordnordøst med vindstød på up til 20 kt
Temperatur 17°C
Fugtighed 63%
Tryk 1011 hPa
Sigt: 16.1 km
Nogle få skyer i en højde af 2800 ft

METAR: KVPZ 212356Z AUTO 03009G20KT 10SM FEW028 17/10 A2985 RMK AO2 SLP103 T01720100 10222 20172 53018

Tid: 19:53 (00:53 UTC)


TAF: fraværende

Vejrobservationer og prognoser fra mere end 4000 lufthavne (METAR og TAF).

De gule og røde prikker repræsenterer de meteorologiske stationer.

Flyt musen over at se navnet på stationen.

Så klik over at se vejr observationer og prognoser.

At skifte det kort: Klik på de grønne knapper med et sort kors for at zoome ind; på den grønne knap med en bindestreg for at zoome ud; eller på de grønne pile for tilstødende kort.


METAR-TAF: